sim
Sign-in with your pilot id or email,
or register
Callsign
Passwort

Schedule Details

Flight Number: EWG4062
Departure: Dortmund Airport (EDLW) at 17:40
Arrival: Munich Airport (EDDM) at 18:45
Route: Eurowings Passenger Schedule. Enter filed route here before submitting Pirep.

Weather Information
Getting current METAR information for EDLW 260920Z VRB03KT 9999 FEW013 BKN017 11/07 Q0996
Getting current METAR information for EDDM 260920Z 26022G32KT 9999 -DZRA SCT017 BKN025 08/04 Q1000 NOSIG

Schedule Frequency

Route Map